createdAt,value
2023-08-15T00:03:05.775Z,100
2023-08-15T00:08:27.668Z,100
2023-08-15T00:14:08.433Z,100
2023-08-15T00:19:37.151Z,100
2023-08-15T00:25:26.599Z,100
2023-08-15T00:30:40.964Z,100
2023-08-15T00:36:36.789Z,100
2023-08-15T00:41:58.960Z,100
2023-08-15T00:47:33.608Z,100
2023-08-15T00:52:59.038Z,100
2023-08-15T00:58:41.123Z,100
2023-08-15T01:09:38.481Z,100
2023-08-15T01:15:13.889Z,100
2023-08-15T01:20:56.909Z,100
2023-08-15T01:26:48.564Z,100
2023-08-15T01:32:17.937Z,100
2023-08-15T01:37:50.682Z,100
2023-08-15T01:43:11.755Z,100
2023-08-15T01:48:39.222Z,100
2023-08-15T01:59:49.415Z,100
2023-08-15T02:05:25.453Z,100
2023-08-15T02:11:16.090Z,100
2023-08-15T02:16:46.266Z,100
2023-08-15T02:22:27.179Z,100
2023-08-15T02:27:46.700Z,100
2023-08-15T02:33:31.156Z,100
2023-08-15T02:39:11.403Z,100
2023-08-15T02:44:41.573Z,100
2023-08-15T02:50:09.687Z,100
2023-08-15T02:55:46.258Z,100
2023-08-15T03:01:30.240Z,100
2023-08-15T03:06:42.258Z,100
2023-08-15T03:12:22.931Z,100
2023-08-15T03:18:06.901Z,100
2023-08-15T03:23:25.326Z,100
2023-08-15T03:34:30.938Z,100
2023-08-15T03:40:28.769Z,100
2023-08-15T03:45:52.061Z,100
2023-08-15T03:51:38.460Z,100
2023-08-15T03:56:59.518Z,100
2023-08-15T04:02:32.779Z,100
2023-08-15T04:08:05.827Z,100
2023-08-15T04:13:42.851Z,100
2023-08-15T04:24:39.343Z,100
2023-08-15T04:30:16.130Z,100
2023-08-15T04:35:55.922Z,100
2023-08-15T04:41:24.951Z,100
2023-08-15T04:47:07.485Z,100
2023-08-15T04:52:36.346Z,100
2023-08-15T04:58:18.493Z,100
2023-08-15T05:09:24.001Z,100
2023-08-15T05:14:56.712Z,100
2023-08-15T05:20:50.535Z,100
2023-08-15T05:26:07.348Z,100
2023-08-15T05:32:01.386Z,100
2023-08-15T05:37:33.494Z,100
2023-08-15T05:42:48.395Z,100
2023-08-15T05:48:25.965Z,100
2023-08-15T05:53:58.157Z,100
2023-08-15T05:59:43.789Z,100
2023-08-15T06:05:21.516Z,100
2023-08-15T06:10:34.085Z,100
2023-08-15T06:16:18.141Z,100
2023-08-15T06:21:56.175Z,100
2023-08-15T06:27:20.226Z,100
2023-08-15T06:33:04.234Z,100
2023-08-15T06:38:36.450Z,100
2023-08-15T06:49:52.435Z,100
2023-08-15T06:55:30.986Z,100
2023-08-15T07:01:02.352Z,100
2023-08-15T07:06:39.154Z,100
2023-08-15T07:12:27.579Z,100
2023-08-15T07:17:41.440Z,100
2023-08-15T07:23:35.276Z,100
2023-08-15T07:28:52.217Z,100
2023-08-15T07:34:39.992Z,100
2023-08-15T07:40:12.851Z,100
2023-08-15T07:46:03.060Z,100
2023-08-15T07:51:23.401Z,100
2023-08-15T07:57:12.874Z,100
2023-08-15T08:02:35.091Z,100
2023-08-15T08:08:12.698Z,100
2023-08-15T08:13:50.616Z,100
2023-08-15T08:19:40.867Z,100
2023-08-15T08:25:23.719Z,100
2023-08-15T08:31:02.865Z,100
2023-08-15T08:36:21.728Z,100
2023-08-15T08:42:00.583Z,100
2023-08-15T08:47:38.444Z,100
2023-08-15T08:59:05.884Z,100
2023-08-15T09:04:24.011Z,100
2023-08-15T09:10:17.504Z,100
2023-08-15T09:15:46.648Z,100
2023-08-15T09:21:25.586Z,100
2023-08-15T09:26:55.586Z,100
2023-08-15T09:32:35.771Z,98
2023-08-15T09:38:31.199Z,98
2023-08-15T09:43:47.949Z,92
2023-08-15T09:49:38.862Z,91
2023-08-15T09:55:21.917Z,92
2023-08-15T10:01:02.121Z,91
2023-08-15T10:06:44.622Z,89
2023-08-15T10:12:19.582Z,91
2023-08-15T10:18:03.426Z,92
2023-08-15T10:23:15.261Z,95
2023-08-15T10:29:04.410Z,94
2023-08-15T10:34:44.744Z,90
2023-08-15T10:40:31.392Z,86
2023-08-15T10:45:52.309Z,88
2023-08-15T10:51:34.470Z,85
2023-08-15T10:57:08.530Z,86
2023-08-15T11:02:52.831Z,85
2023-08-15T11:08:27.051Z,84
2023-08-15T11:13:58.678Z,81
2023-08-15T11:19:53.568Z,80
2023-08-15T11:25:23.563Z,79
2023-08-15T11:31:23.664Z,79
2023-08-15T11:36:37.364Z,80
2023-08-15T11:42:23.389Z,77
2023-08-15T11:48:18.536Z,74
2023-08-15T11:59:17.479Z,76
2023-08-15T12:04:56.550Z,75
2023-08-15T12:10:53.937Z,70
2023-08-15T12:16:11.307Z,74
2023-08-15T12:21:58.472Z,73
2023-08-15T12:27:26.944Z,74
2023-08-15T12:33:31.251Z,68
2023-08-15T12:44:55.193Z,63
2023-08-15T12:50:21.540Z,61
2023-08-15T12:55:53.383Z,64
2023-08-15T13:01:43.213Z,58
2023-08-15T13:07:15.580Z,58
2023-08-15T13:13:01.339Z,56
2023-08-15T13:29:59.191Z,55
2023-08-15T13:35:28.781Z,54
2023-08-15T13:41:04.106Z,57
2023-08-15T13:46:57.551Z,56
2023-08-15T13:52:28.384Z,55
2023-08-15T13:58:23.207Z,53
2023-08-15T14:09:23.763Z,51
2023-08-15T14:15:23.327Z,52
2023-08-15T14:20:55.378Z,54
2023-08-15T14:26:29.859Z,53
2023-08-15T14:32:04.927Z,54
2023-08-15T14:37:50.469Z,52
2023-08-15T14:43:31.765Z,53
2023-08-15T14:55:04.814Z,50
2023-08-15T15:00:42.194Z,49
2023-08-15T15:06:19.047Z,50
2023-08-15T15:11:51.182Z,51
2023-08-15T15:17:35.851Z,55
2023-08-15T15:23:02.374Z,72
2023-08-15T15:28:57.752Z,76
2023-08-15T15:34:27.102Z,89
2023-08-15T15:40:22.658Z,91
2023-08-15T15:45:45.061Z,91
2023-08-15T15:51:26.130Z,91
2023-08-15T15:56:50.048Z,94
2023-08-15T16:02:34.075Z,95
2023-08-15T16:08:21.851Z,96
2023-08-15T16:13:53.473Z,100
2023-08-15T16:19:19.310Z,100
2023-08-15T16:25:06.850Z,100
2023-08-15T16:30:44.442Z,100
2023-08-15T16:36:24.763Z,100
2023-08-15T16:42:07.288Z,100
2023-08-15T16:47:41.364Z,100
2023-08-15T16:53:24.345Z,100
2023-08-15T16:58:53.485Z,100
2023-08-15T17:04:40.349Z,100
2023-08-15T17:10:25.586Z,100
2023-08-15T17:16:06.903Z,100
2023-08-15T17:21:57.822Z,100
2023-08-15T17:27:34.462Z,100
2023-08-15T17:32:59.663Z,100
2023-08-15T17:44:09.480Z,100
2023-08-15T17:49:53.526Z,100
2023-08-15T17:55:15.574Z,100
2023-08-15T18:01:20.180Z,100
2023-08-15T18:06:39.644Z,100
2023-08-15T18:12:16.264Z,100
2023-08-15T18:18:09.065Z,100
2023-08-15T18:23:20.339Z,100
2023-08-15T18:28:59.944Z,100
2023-08-15T18:34:48.332Z,100
2023-08-15T18:40:32.990Z,100
2023-08-15T18:46:04.269Z,100
2023-08-15T18:51:29.626Z,100
2023-08-15T18:57:11.268Z,100
2023-08-15T19:02:46.827Z,100
2023-08-15T19:08:07.192Z,100
2023-08-15T19:13:54.016Z,100
2023-08-15T19:19:24.732Z,100
2023-08-15T19:24:54.606Z,100
2023-08-15T19:30:49.900Z,100
2023-08-15T19:36:04.757Z,100
2023-08-15T19:42:00.253Z,100
2023-08-15T19:47:29.946Z,100
2023-08-15T19:53:03.723Z,100
2023-08-15T20:04:07.638Z,100
2023-08-15T20:10:10.377Z,100
2023-08-15T20:15:41.950Z,100
2023-08-15T20:21:17.331Z,100
2023-08-15T20:26:27.568Z,100
2023-08-15T20:32:24.934Z,100
2023-08-15T20:38:05.792Z,100
2023-08-15T20:54:42.292Z,100
2023-08-15T21:00:09.960Z,100
2023-08-15T21:05:39.562Z,100
2023-08-15T21:11:18.308Z,100
2023-08-15T21:17:01.931Z,100
2023-08-15T21:22:27.956Z,100
2023-08-15T21:28:03.973Z,100
2023-08-15T21:33:26.426Z,100
2023-08-15T21:39:06.824Z,100
2023-08-15T21:44:48.301Z,100
2023-08-15T21:50:39.579Z,100
2023-08-15T21:55:58.633Z,100
2023-08-15T22:01:27.168Z,100
2023-08-15T22:07:03.283Z,100
2023-08-15T22:12:56.370Z,100
2023-08-15T22:18:20.872Z,100
2023-08-15T22:23:53.507Z,100
2023-08-15T22:29:41.393Z,100
2023-08-15T22:34:57.471Z,100
2023-08-15T22:40:35.455Z,100
2023-08-15T22:46:27.121Z,100
2023-08-15T22:52:02.079Z,100
2023-08-15T22:57:20.626Z,100
2023-08-15T23:03:02.164Z,100
2023-08-15T23:08:29.814Z,100
2023-08-15T23:14:06.372Z,100
2023-08-15T23:19:56.099Z,100
2023-08-15T23:25:20.253Z,100
2023-08-15T23:30:38.834Z,100
2023-08-15T23:36:34.381Z,100
2023-08-15T23:42:08.829Z,100
2023-08-15T23:47:39.469Z,100
2023-08-15T23:53:13.572Z,100
2023-08-15T23:58:41.491Z,100
